Nearby METAR Reports

 

EBAW - Antwerpen, Belgium
Distance from station: NW 22km
Updated: 2019-08-17 16:50
Mostly cloudy
Mostly cloudy
 Wind from SSW
Wind: SSW 19 km/h
Temperature: 21°C
Dew Point: 18°C
Humidity: 83%
Barometer: 1007 hPa
Clouds: Mostly cloudy
Visibility: 10 km
Cloud details: Few Clouds 244 m
Mostly cloudy 366 m
2019/08/17 14:50 EBAW 171450Z 20010KT 9999 FEW008 BKN012 21/18 Q1007 TEMPO 3000 DZRA BKN005
EBBR - Brussel, Belgium
Distance from station: SW 24km
Updated: 2019-08-17 16:50
Mostly cloudy
Mostly cloudy
 Wind from SSW
Wind: SSW 19 km/h
Temperature: 19°C
Dew Point: 17°C
Humidity: 88%
Barometer: 1008 hPa
Clouds: Mostly cloudy
Visibility: 10 km
Cloud details: Partly cloudy 274 m
Mostly cloudy 396 m
Mostly cloudy 518 m
2019/08/17 14:50 EBBR 171450Z 21010KT 9999 SCT009 BKN013 BKN017 19/17 Q1008 NOSIG
 
EBDT - Schaffen, Belgium
Distance from station: ESE 26km
Updated: 2019-08-17 16:55
Mostly cloudy
Mostly cloudy
 Wind from SSW
Wind: SSW 15 km/h
Temperature: 19°C
Dew Point: 17°C
Humidity: 88%
Barometer: 1008 hPa
Clouds: Mostly cloudy
Visibility: 10 km
Cloud details: Partly cloudy 274 m
Mostly cloudy 335 m
2019/08/17 14:55 EBDT 171455Z AUTO 20008KT 9999 SCT009/// BKN011/// 19/17 Q1008 GRN
EBBE - Beauvechain, Belgium
Distance from station: S 36km
Updated: 2019-08-14 10:25
NOT Current
Partly cloudy
Partly cloudy
 Wind from SSW
Wind: SSW 17 km/h
Temperature: 15°C
Dew Point: 11°C
Humidity: 77%
Barometer: 1019 hPa
Clouds: Partly cloudy
Visibility: 10 km
Cloud details: Partly cloudy 457 m
2019/08/14 08:25 EBBE 140825Z 21009KT 9999 SCT015 15/11 Q1019 WHT BLU TEMPO WHT
 
EHWO - Woensdrecht Rnla, Netherlands
Distance from station: NNW 50km
Updated: 2019-08-17 17:14
Heavy drizzle, Overcast
Heavy drizzle, Overcast
 Wind from WSW
Wind: WSW 22 km/h
Temperature: 19°C
Dew Point: 17°C
Humidity: 88%
Barometer: 1006 hPa
Summary: Heavy Drizzle
Clouds: Overcast
Visibility: 6 km
Cloud details: Few Clouds 457 m
Overcast 762 m
2019/08/17 15:14 EHWO 171514Z AUTO 25012KT 220V290 6000 +DZ FEW015CB OVC025 19/17 Q1006 WHT
EBBL - Kleine-Brogel, Belgium
Distance from station: ENE 54km
Updated: 2019-08-14 16:30
NOT Current
Partly cloudy
Partly cloudy
 Wind from SSW
Wind: SSW 17 km/h
Temperature: 20°C
Dew Point: 9°C
Humidity: 49%
Barometer: 1016 hPa
Clouds: Partly cloudy
Visibility: 10 km
Cloud details: Few Clouds 1463 m
Partly cloudy 5486 m
2019/08/14 14:30 EBBL 141430Z 21009KT 9999 FEW048 SCT180 20/09 Q1016 BLU BLU
 
EHGR - Gilze-Rijen Rnla, Netherlands
Distance from station: NNE 57km
Updated: 2019-08-17 16:55
Mostly cloudy
Mostly cloudy
 Wind from S
Wind: S 28 km/h
Temperature: 21°C
Dew Point: 18°C
Humidity: 83%
Barometer: 1006 hPa
Clouds: Mostly cloudy
Visibility: 10 km
Cloud details: Mostly cloudy 335 m
Mostly cloudy 457 m
Mostly cloudy 762 m
2019/08/17 14:55 EHGR 171455Z AUTO 19015KT 150V230 9999 BKN011 BKN015CB BKN025 21/18 Q1006 GRN
EHEH - Eindhoven Rnlafb, Netherlands
Distance from station: NE 63km
Updated: 2019-08-17 16:55
Overcast
Overcast
 Wind from S
Wind: S 20 km/h
Temperature: 20°C
Dew Point: 17°C
Humidity: 83%
Barometer: 1007 hPa
Clouds: Overcast
Visibility: 10 km
Cloud details: Few Clouds 305 m
Mostly cloudy 396 m
Overcast 457 m
2019/08/17 14:55 EHEH 171455Z AUTO 19011KT 160V230 9999 FEW010 BKN013 OVC015 20/17 Q1007 GRN 21010KT 9999 BKN014 BKN018 TEMPO 4000 -RADZ SCT010 OVC015
 
EBCI - Charleroi, Belgium
Distance from station: SSW 70km
Updated: 2019-08-17 16:50
Light rain, Drizzle, Mostly cloudy
Light rain, Drizzle, Mostly cloudy
 Wind from SSW
Wind: SSW 19 km/h
Temperature: 18°C
Dew Point: 17°C
Humidity: 94%
Barometer: 1009 hPa
Summary: Light rain, Drizzle
Clouds: Mostly cloudy
Visibility: 5 km
Cloud details: Mostly cloudy 122 m
Mostly cloudy 213 m
2019/08/17 14:50 EBCI 171450Z 21010KT 4500 -RADZ BKN004 BKN007 18/17 Q1009 TEMPO 4000 RADZ OVC005
EBLG - Bierset, Belgium
Distance from station: SE 72km
Updated: 2019-08-17 16:50
Light rain, Mostly cloudy
Light rain, Mostly cloudy
 Wind from SSW
Wind: SSW 19 km/h
Temperature: 18°C
Dew Point: 17°C
Humidity: 94%
Barometer: 1009 hPa
Summary: Light rain
Clouds: Mostly cloudy
Visibility: 6 km
Cloud details: Partly cloudy 244 m
Mostly cloudy 366 m
2019/08/17 14:50 EBLG 171450Z 21010KT 6000 -RA SCT008 BKN012 18/17 Q1009 TEMPO 4000 BKN008